Aullville, Missouri
Current Conditions -  °F | °C
As of 12:35 PM on Friday 31 Oct 2014 (Local Time) from KRCM Reporting Station
Clear Clear  
Wind Chill:   Ceiling: Unl
Heat Index:   Visibility: 10mi
Dew Point: -7°   Wind: 13mph
Humidity: 39%   Direction: 350°N
Pressure: 30.46"   Gusts: 18mph
Location:  39.0541°N, 93.6618°W
Report Text: KRCM 311735Z AUTO 35011G16KT 10SM CLR 06/M07 A3046 RMK AO2
Loading
Personal Weather Stations






























Interactive Weather Map
Tropical Storm Tracking
New forecast layout! Learn more

10-Day Weather Forecast

Advertisements
Track Severe Weather on mobile